Aérodrome :
LOGIN :

S'inscrire | Disclaimer

   EN    FR    IT 

 










Légende :    VFR   VFR Marginal   IFR   IFR Intensif   IFR Très Intensif
Visi : 
Plafond : 
>= 8 km
>= 3000ft
5 à 8 km
1000 à 3000 ft
1500m à 5 km
500 à 1000 ft
800 à 1500m
200 à 500 ft
< 800m
< 200 ft
Symboles :   Orages  Brouillard  Fortes neiges  Fortes précipitations  Vent > 20 kt
SIGMETs :   Divers  Orages  Givrage  Turbulence  Onde Orograph.  Cendres Volcan.







- Altitude de l'aérodrome : 2302 ft
- Voir les cartes d'approche


LEAB - Albacete

DERNIER METAR :
  • 190900Z 25006KT 9999 BKN014 10/08 Q1024 BECMG SCT015

METARs EXPIRÉS :
  • 190837Z 25006KT 9999 BKN014 BKN025 10/08 Q1023 BECMG SCT015
  • 190800Z 25006KT 9999 SCT018 BKN027 10/08 Q1023 NOSIG
  • 190700Z 25009KT 9999 FEW021 BKN036 10/08 Q1022 NOSIG

TAF AMD TAF LEAB
Valide du 19 à 09h jusqu'au 19 à 18h UTC


190838Z 1909/1918 24012KT 9999 FEW020 SCT040
BECMG 1909/1911 30012KT
TEMPO 1909/1911 BKN014
Pas de NOTAMs connus pour ce terrain.



MET'MAP, la Météo Aéronautique d'un coup d'oeil ! - Copyright ORBIFLY Décembre 2007 - Disclaimer

ORBIFLY MET'MAP TEAM :

Programmation & Développement : Alexandra Zaïnal
Conception & Développement : Baudouin d'Aumeries
Co-Programmation & Développement : Marc-Olivier Méhu
Soutien technique & logistique : Manuel Goepfert

Contact : metmap@orbifly.com




SOURCES & CREDITS :

   NOAA